createdAt,value
2022-12-26T00:02:02.829Z,13.00
2022-12-26T00:04:49.525Z,12.00
2022-12-26T00:07:19.679Z,12.57
2022-12-26T00:09:47.361Z,13.20
2022-12-26T00:12:15.048Z,14.17
2022-12-26T00:14:42.647Z,13.80
2022-12-26T00:17:10.300Z,12.97
2022-12-26T00:19:38.205Z,12.33
2022-12-26T00:22:06.688Z,11.67
2022-12-26T00:24:35.137Z,10.70
2022-12-26T00:27:02.776Z,10.43
2022-12-26T00:29:30.539Z,10.23
2022-12-26T00:31:58.118Z,10.63
2022-12-26T00:34:25.820Z,10.17
2022-12-26T00:36:53.465Z,9.60
2022-12-26T00:39:21.165Z,9.67
2022-12-26T00:41:48.759Z,10.37
2022-12-26T00:44:17.088Z,10.40
2022-12-26T00:46:44.661Z,9.80
2022-12-26T00:49:12.349Z,9.83
2022-12-26T00:51:40.033Z,9.53
2022-12-26T00:54:07.755Z,8.93
2022-12-26T00:56:35.430Z,8.83
2022-12-26T00:59:03.167Z,9.30
2022-12-26T01:01:31.484Z,9.20
2022-12-26T01:03:59.662Z,10.37
2022-12-26T01:06:27.359Z,9.97
2022-12-26T01:08:55.085Z,11.40
2022-12-26T01:11:41.065Z,10.40
2022-12-26T01:14:18.630Z,10.40
2022-12-26T01:16:47.831Z,9.20
2022-12-26T01:19:15.476Z,10.10
2022-12-26T01:21:43.311Z,9.93
2022-12-26T01:24:11.069Z,11.03
2022-12-26T01:26:38.609Z,10.23
2022-12-26T01:29:06.379Z,10.60
2022-12-26T01:31:34.003Z,9.30
2022-12-26T01:34:01.699Z,11.23
2022-12-26T01:36:29.263Z,10.90
2022-12-26T01:38:56.835Z,9.70
2022-12-26T01:41:24.516Z,10.13
2022-12-26T01:44:55.123Z,10.77
2022-12-26T01:47:52.003Z,10.10
2022-12-26T01:50:48.628Z,10.57
2022-12-26T01:53:27.851Z,9.00
2022-12-26T01:56:19.595Z,9.67
2022-12-26T01:59:00.648Z,10.40
2022-12-26T02:01:35.699Z,9.67
2022-12-26T02:04:28.801Z,9.63
2022-12-26T02:06:56.683Z,8.50
2022-12-26T02:09:25.610Z,9.70
2022-12-26T02:12:37.417Z,10.27
2022-12-26T02:15:13.495Z,9.90
2022-12-26T02:17:42.634Z,9.23
2022-12-26T02:20:47.405Z,6.80
2022-12-26T02:24:03.238Z,6.50
2022-12-26T02:27:26.798Z,6.07
2022-12-26T02:31:35.981Z,4.77
2022-12-26T02:34:40.976Z,4.17
2022-12-26T02:38:14.141Z,4.17
2022-12-26T02:41:56.607Z,3.60
2022-12-26T02:45:14.402Z,3.33
2022-12-26T02:48:18.516Z,3.20
2022-12-26T02:52:00.147Z,2.60
2022-12-26T02:55:17.678Z,2.63
2022-12-26T02:58:39.154Z,3.00
2022-12-26T03:01:58.961Z,2.77
2022-12-26T03:04:55.001Z,4.23
2022-12-26T03:07:57.725Z,3.37
2022-12-26T03:10:55.419Z,4.20
2022-12-26T03:13:36.937Z,4.80
2022-12-26T03:16:30.698Z,6.03
2022-12-26T03:19:10.042Z,6.63
2022-12-26T03:21:46.157Z,6.80
2022-12-26T03:24:18.004Z,9.50
2022-12-26T03:26:55.131Z,10.00
2022-12-26T03:29:43.637Z,9.80
2022-12-26T03:32:13.464Z,11.43
2022-12-26T03:34:45.175Z,10.20
2022-12-26T03:37:49.234Z,12.17
2022-12-26T03:41:33.010Z,12.07
2022-12-26T03:44:58.634Z,13.70
2022-12-26T03:48:24.155Z,12.60
2022-12-26T03:51:32.424Z,13.50
2022-12-26T03:54:48.198Z,11.40
2022-12-26T03:57:46.177Z,10.93
2022-12-26T04:00:35.012Z,11.60
2022-12-26T04:03:32.616Z,10.33
2022-12-26T04:06:32.260Z,11.33
2022-12-26T04:09:56.454Z,9.80
2022-12-26T04:12:46.660Z,9.27
2022-12-26T04:16:20.618Z,11.90
2022-12-26T04:20:00.367Z,12.00
2022-12-26T04:23:30.905Z,12.80
2022-12-26T04:26:50.956Z,12.30
2022-12-26T04:29:37.202Z,12.63
2022-12-26T04:32:53.210Z,10.37
2022-12-26T04:36:09.467Z,8.67
2022-12-26T04:39:12.215Z,7.00
2022-12-26T04:42:02.196Z,8.57
2022-12-26T04:44:33.276Z,7.30
2022-12-26T04:47:01.214Z,9.03
2022-12-26T04:49:47.135Z,8.10
2022-12-26T04:52:15.902Z,8.30
2022-12-26T04:54:43.957Z,8.63
2022-12-26T04:57:11.903Z,8.47
2022-12-26T04:59:39.608Z,9.00
2022-12-26T05:02:27.147Z,8.90
2022-12-26T05:05:13.983Z,8.20
2022-12-26T05:08:00.244Z,9.50
2022-12-26T05:10:29.788Z,8.20
2022-12-26T05:12:57.366Z,8.60
2022-12-26T05:15:25.608Z,9.10
2022-12-26T05:18:12.647Z,9.17
2022-12-26T05:20:46.558Z,8.40
2022-12-26T05:23:47.299Z,8.57
2022-12-26T05:26:42.299Z,9.50
2022-12-26T05:29:10.053Z,8.97
2022-12-26T05:31:37.767Z,9.13
2022-12-26T05:34:10.668Z,9.00
2022-12-26T05:36:56.663Z,8.80
2022-12-26T05:39:24.766Z,7.93
2022-12-26T05:41:52.423Z,8.37
2022-12-26T05:44:19.985Z,8.47
2022-12-26T05:46:48.230Z,8.07
2022-12-26T05:49:16.264Z,10.20
2022-12-26T05:51:44.504Z,7.70
2022-12-26T05:54:12.082Z,9.20
2022-12-26T05:56:41.917Z,9.20
2022-12-26T05:59:13.479Z,8.70
2022-12-26T06:01:41.104Z,9.87
2022-12-26T06:04:08.854Z,9.47
2022-12-26T06:06:36.909Z,9.37
2022-12-26T06:09:04.518Z,9.40
2022-12-26T06:11:32.398Z,10.03
2022-12-26T06:14:02.036Z,9.27
2022-12-26T06:16:29.809Z,9.07
2022-12-26T06:18:57.605Z,8.40
2022-12-26T06:21:25.566Z,8.13
2022-12-26T06:23:53.324Z,8.27
2022-12-26T06:26:21.252Z,7.97
2022-12-26T06:28:48.908Z,7.73
2022-12-26T06:31:24.380Z,8.00
2022-12-26T06:33:58.434Z,7.63
2022-12-26T06:36:29.409Z,6.87
2022-12-26T06:38:58.351Z,6.47
2022-12-26T06:41:26.224Z,6.80
2022-12-26T06:43:56.019Z,7.27
2022-12-26T06:46:26.486Z,7.03
2022-12-26T06:48:55.118Z,6.53
2022-12-26T06:51:28.736Z,7.50
2022-12-26T06:53:56.445Z,6.67
2022-12-26T06:56:28.150Z,7.60
2022-12-26T06:59:05.745Z,7.20
2022-12-26T07:01:35.864Z,7.23
2022-12-26T07:04:04.817Z,6.67
2022-12-26T07:06:39.334Z,6.27
2022-12-26T07:09:17.695Z,7.90
2022-12-26T07:11:50.633Z,7.87
2022-12-26T07:14:18.657Z,7.00
2022-12-26T07:16:46.653Z,7.07
2022-12-26T07:19:16.069Z,7.33
2022-12-26T07:21:44.597Z,7.03
2022-12-26T07:24:22.460Z,7.70
2022-12-26T07:26:50.856Z,6.67
2022-12-26T07:29:18.522Z,6.47
2022-12-26T07:31:46.304Z,7.23
2022-12-26T07:34:14.980Z,5.70
2022-12-26T07:36:43.013Z,6.20
2022-12-26T07:39:14.397Z,5.90
2022-12-26T07:42:00.205Z,5.63
2022-12-26T07:44:33.630Z,5.63
2022-12-26T07:47:02.169Z,6.53
2022-12-26T07:49:29.793Z,5.10
2022-12-26T07:51:58.399Z,5.60
2022-12-26T07:54:28.358Z,5.53
2022-12-26T07:57:15.160Z,5.27
2022-12-26T07:59:44.782Z,3.97
2022-12-26T08:02:12.583Z,5.30
2022-12-26T08:04:40.285Z,4.80
2022-12-26T08:07:07.887Z,4.90
2022-12-26T08:09:35.501Z,4.53
2022-12-26T08:12:03.253Z,5.83
2022-12-26T08:14:30.773Z,4.77
2022-12-26T08:16:58.454Z,4.27
2022-12-26T08:19:26.033Z,4.73
2022-12-26T08:21:54.160Z,4.80
2022-12-26T08:24:21.917Z,4.77
2022-12-26T08:26:49.460Z,3.70
2022-12-26T08:29:18.017Z,3.57
2022-12-26T08:31:45.697Z,3.30
2022-12-26T08:34:13.596Z,3.50
2022-12-26T08:36:41.499Z,3.63
2022-12-26T08:39:09.375Z,3.90
2022-12-26T08:41:37.070Z,3.60
2022-12-26T08:46:52.580Z,4.67
2022-12-26T08:49:20.226Z,4.20
2022-12-26T08:51:49.245Z,3.60
2022-12-26T08:54:16.886Z,3.73
2022-12-26T08:56:44.531Z,3.70
2022-12-26T08:59:12.167Z,4.30
2022-12-26T09:01:40.924Z,4.27
2022-12-26T09:04:08.737Z,3.63
2022-12-26T09:06:40.204Z,4.63
2022-12-26T09:09:12.128Z,4.10
2022-12-26T09:11:41.989Z,4.53
2022-12-26T09:14:11.551Z,3.00
2022-12-26T09:16:50.483Z,4.07
2022-12-26T09:19:21.790Z,3.30
2022-12-26T09:22:14.127Z,3.40
2022-12-26T09:24:42.201Z,2.50
2022-12-26T09:27:11.058Z,2.20
2022-12-26T09:29:38.940Z,2.37
2022-12-26T09:32:07.036Z,2.47
2022-12-26T09:34:34.824Z,2.70
2022-12-26T09:37:02.395Z,2.27
2022-12-26T09:39:30.075Z,2.13
2022-12-26T09:42:23.866Z,2.20
2022-12-26T09:45:25.822Z,1.80
2022-12-26T09:48:34.775Z,2.20
2022-12-26T09:51:03.374Z,2.30
2022-12-26T09:53:44.022Z,2.20
2022-12-26T09:57:01.241Z,1.70
2022-12-26T09:59:20.050Z,1.83
2022-12-26T10:01:51.340Z,2.27
2022-12-26T10:04:29.853Z,2.10
2022-12-26T10:07:41.427Z,1.90
2022-12-26T10:10:49.950Z,1.60
2022-12-26T10:13:44.580Z,1.73
2022-12-26T10:17:03.186Z,1.70
2022-12-26T10:20:53.131Z,1.50
2022-12-26T10:23:59.570Z,2.40
2022-12-26T10:26:41.598Z,1.43
2022-12-26T10:29:09.139Z,1.40
2022-12-26T10:32:21.759Z,1.90
2022-12-26T10:34:54.917Z,1.87
2022-12-26T10:37:41.221Z,1.97
2022-12-26T10:40:30.042Z,2.20
2022-12-26T10:43:35.135Z,1.90
2022-12-26T10:46:32.955Z,1.40
2022-12-26T10:49:00.957Z,1.30
2022-12-26T10:51:28.843Z,2.23
2022-12-26T10:53:56.720Z,3.50
2022-12-26T10:56:27.476Z,2.13
2022-12-26T10:59:06.187Z,1.40
2022-12-26T11:01:41.181Z,1.50
2022-12-26T11:04:53.255Z,1.80
2022-12-26T11:07:19.417Z,1.50
2022-12-26T11:09:56.057Z,1.67
2022-12-26T11:13:07.858Z,1.80
2022-12-26T11:15:54.252Z,1.80
2022-12-26T11:18:51.390Z,1.70
2022-12-26T11:21:18.963Z,1.50
2022-12-26T11:24:19.847Z,1.50
2022-12-26T11:26:49.049Z,1.90
2022-12-26T11:29:24.466Z,1.70
2022-12-26T11:32:02.855Z,1.60
2022-12-26T11:34:46.122Z,1.50
2022-12-26T11:37:41.066Z,3.60
2022-12-26T11:40:37.462Z,2.10
2022-12-26T11:43:18.270Z,2.10
2022-12-26T11:45:50.873Z,2.00
2022-12-26T11:48:27.463Z,2.17
2022-12-26T11:50:55.709Z,1.40
2022-12-26T11:53:24.088Z,1.40
2022-12-26T11:56:11.568Z,2.30
2022-12-26T11:58:39.430Z,1.77
2022-12-26T12:01:16.772Z,2.47
2022-12-26T12:03:50.321Z,1.97
2022-12-26T12:07:03.165Z,2.27
2022-12-26T12:10:25.609Z,2.20
2022-12-26T12:13:19.392Z,2.10
2022-12-26T12:16:58.267Z,1.63
2022-12-26T12:20:20.410Z,2.10
2022-12-26T12:23:58.986Z,2.00
2022-12-26T12:26:57.685Z,1.80
2022-12-26T12:29:51.884Z,1.30
2022-12-26T12:33:17.346Z,2.10
2022-12-26T12:36:18.656Z,2.77
2022-12-26T12:39:48.956Z,3.00
2022-12-26T12:43:25.107Z,2.20
2022-12-26T12:46:33.721Z,3.13
2022-12-26T12:49:48.621Z,3.17
2022-12-26T12:52:46.323Z,4.23
2022-12-26T12:56:45.028Z,4.00
2022-12-26T13:00:01.003Z,5.00
2022-12-26T13:03:16.937Z,5.97
2022-12-26T13:06:30.770Z,4.90
2022-12-26T13:09:30.724Z,4.80
2022-12-26T13:12:24.967Z,5.30
2022-12-26T13:15:09.927Z,4.93
2022-12-26T13:18:00.797Z,4.47
2022-12-26T13:21:05.212Z,5.07
2022-12-26T13:24:11.429Z,6.13
2022-12-26T13:27:18.690Z,6.30
2022-12-26T13:29:49.657Z,6.20
2022-12-26T13:32:32.634Z,5.60
2022-12-26T13:35:04.444Z,4.47
2022-12-26T13:37:40.950Z,5.47
2022-12-26T13:40:21.821Z,4.83
2022-12-26T13:43:35.095Z,4.83
2022-12-26T13:46:02.881Z,5.47
2022-12-26T13:48:32.324Z,6.47
2022-12-26T13:51:05.013Z,4.60
2022-12-26T13:53:40.165Z,4.67
2022-12-26T13:56:19.727Z,4.93
2022-12-26T13:59:24.737Z,4.97
2022-12-26T14:03:19.729Z,4.10
2022-12-26T14:06:45.788Z,3.80
2022-12-26T14:10:04.115Z,3.90
2022-12-26T14:14:15.720Z,3.73
2022-12-26T14:17:16.438Z,3.90
2022-12-26T14:20:49.632Z,2.53
2022-12-26T14:23:58.079Z,2.70
2022-12-26T14:26:55.796Z,2.80
2022-12-26T14:29:45.813Z,3.00
2022-12-26T14:33:03.663Z,2.27
2022-12-26T14:36:26.959Z,2.17
2022-12-26T14:40:04.629Z,2.50
2022-12-26T14:43:11.097Z,1.73
2022-12-26T14:46:35.086Z,2.40
2022-12-26T14:49:29.243Z,3.10
2022-12-26T14:52:24.370Z,2.80
2022-12-26T14:54:56.070Z,2.30
2022-12-26T14:57:49.652Z,2.90
2022-12-26T15:00:23.307Z,2.93
2022-12-26T15:03:01.763Z,3.70
2022-12-26T15:05:44.701Z,2.73
2022-12-26T15:08:48.945Z,2.43
2022-12-26T15:12:03.135Z,2.87
2022-12-26T15:16:02.868Z,2.93
2022-12-26T15:19:34.365Z,3.57
2022-12-26T15:22:19.324Z,3.20
2022-12-26T15:25:32.452Z,3.30
2022-12-26T15:28:35.943Z,2.90
2022-12-26T15:31:29.859Z,3.40
2022-12-26T15:34:54.241Z,3.27
2022-12-26T15:38:17.606Z,3.80
2022-12-26T15:41:40.324Z,5.00
2022-12-26T15:44:49.525Z,2.90
2022-12-26T15:48:04.879Z,2.93
2022-12-26T15:51:12.317Z,3.00
2022-12-26T15:55:00.327Z,3.00
2022-12-26T15:58:51.074Z,3.53
2022-12-26T16:01:48.855Z,3.80
2022-12-26T16:04:47.066Z,3.20
2022-12-26T16:07:47.396Z,3.00
2022-12-26T16:10:36.967Z,3.60
2022-12-26T16:13:13.651Z,3.87
2022-12-26T16:16:00.906Z,3.53
2022-12-26T16:18:34.028Z,4.17
2022-12-26T16:21:25.560Z,3.50
2022-12-26T16:23:57.319Z,4.10
2022-12-26T16:26:38.985Z,3.73
2022-12-26T16:29:09.904Z,3.60
2022-12-26T16:31:38.996Z,3.90
2022-12-26T16:34:06.716Z,3.13
2022-12-26T16:36:36.658Z,4.40
2022-12-26T16:39:11.681Z,4.57
2022-12-26T16:42:31.394Z,3.10
2022-12-26T16:45:01.248Z,3.70
2022-12-26T16:47:33.336Z,3.57
2022-12-26T16:50:05.638Z,3.07
2022-12-26T16:52:46.308Z,4.10
2022-12-26T16:55:56.262Z,3.33
2022-12-26T16:58:35.270Z,4.50
2022-12-26T17:01:20.713Z,3.73
2022-12-26T17:04:24.474Z,2.97
2022-12-26T17:07:06.707Z,3.57
2022-12-26T17:09:54.455Z,4.27
2022-12-26T17:12:39.754Z,4.00
2022-12-26T17:15:18.500Z,4.40
2022-12-26T17:17:47.585Z,3.83
2022-12-26T17:20:23.932Z,4.03
2022-12-26T17:22:59.068Z,4.53
2022-12-26T17:25:33.693Z,3.20
2022-12-26T17:28:15.232Z,3.33
2022-12-26T17:30:48.735Z,3.57
2022-12-26T17:33:27.914Z,2.60
2022-12-26T17:39:26.834Z,3.47
2022-12-26T17:42:02.335Z,3.83
2022-12-26T17:44:45.295Z,2.70
2022-12-26T17:47:24.256Z,3.00
2022-12-26T17:49:55.474Z,2.60
2022-12-26T17:52:29.987Z,2.67
2022-12-26T17:54:59.829Z,2.93
2022-12-26T17:57:30.414Z,2.70
2022-12-26T17:59:59.467Z,3.60
2022-12-26T18:02:27.778Z,2.60
2022-12-26T18:04:56.013Z,2.63
2022-12-26T18:07:32.030Z,2.60
2022-12-26T18:10:02.430Z,2.80
2022-12-26T18:12:30.241Z,2.63
2022-12-26T18:15:02.197Z,2.80
2022-12-26T18:17:33.893Z,2.53
2022-12-26T18:20:05.173Z,2.10
2022-12-26T18:22:32.816Z,3.13
2022-12-26T18:25:00.404Z,2.77
2022-12-26T18:27:34.252Z,2.40
2022-12-26T18:30:02.500Z,2.57
2022-12-26T18:32:34.563Z,2.70
2022-12-26T18:35:02.185Z,3.37
2022-12-26T18:37:30.979Z,2.90
2022-12-26T18:39:58.673Z,2.77
2022-12-26T18:42:27.434Z,3.60
2022-12-26T18:44:55.920Z,3.50
2022-12-26T18:47:24.324Z,3.77
2022-12-26T18:49:51.948Z,2.83
2022-12-26T18:52:19.601Z,3.43
2022-12-26T18:54:47.222Z,3.07
2022-12-26T18:57:20.611Z,3.20
2022-12-26T18:59:48.716Z,3.23
2022-12-26T19:02:19.934Z,3.20
2022-12-26T19:04:49.401Z,2.83
2022-12-26T19:07:20.479Z,2.67
2022-12-26T19:09:55.682Z,2.97
2022-12-26T19:12:25.266Z,2.67
2022-12-26T19:14:53.802Z,3.30
2022-12-26T19:17:21.424Z,2.83
2022-12-26T19:19:49.110Z,2.87
2022-12-26T19:22:16.705Z,2.63
2022-12-26T19:24:46.572Z,2.80
2022-12-26T19:27:14.181Z,2.20
2022-12-26T19:29:42.054Z,3.07
2022-12-26T19:32:09.609Z,2.40
2022-12-26T19:34:37.911Z,2.10
2022-12-26T19:37:05.567Z,2.93
2022-12-26T19:39:33.231Z,3.00
2022-12-26T19:42:00.896Z,2.60
2022-12-26T19:44:30.151Z,3.30
2022-12-26T19:47:12.663Z,4.10
2022-12-26T19:49:42.925Z,4.23
2022-12-26T19:52:13.683Z,5.67
2022-12-26T19:54:41.403Z,5.30
2022-12-26T19:57:09.358Z,6.27
2022-12-26T19:59:37.134Z,5.57
2022-12-26T20:02:05.472Z,6.07
2022-12-26T20:04:33.355Z,8.07
2022-12-26T20:07:01.712Z,6.57
2022-12-26T20:09:29.851Z,5.47
2022-12-26T20:11:57.789Z,5.40
2022-12-26T20:14:28.226Z,5.13
2022-12-26T20:17:08.265Z,5.60
2022-12-26T20:19:37.366Z,4.97
2022-12-26T20:22:07.370Z,5.57
2022-12-26T20:24:35.988Z,5.20
2022-12-26T20:27:04.527Z,4.90
2022-12-26T20:29:32.775Z,5.43
2022-12-26T20:32:00.461Z,5.53
2022-12-26T20:34:28.134Z,4.63
2022-12-26T20:36:55.890Z,5.23
2022-12-26T20:39:24.022Z,4.80
2022-12-26T20:41:51.742Z,5.93
2022-12-26T20:44:19.981Z,5.50
2022-12-26T20:46:47.706Z,4.20
2022-12-26T20:49:15.919Z,4.40
2022-12-26T20:51:46.047Z,4.70
2022-12-26T20:54:17.664Z,5.07
2022-12-26T20:56:46.200Z,3.90
2022-12-26T20:59:14.151Z,4.03
2022-12-26T21:01:42.470Z,4.40
2022-12-26T21:04:21.657Z,4.07
2022-12-26T21:06:50.535Z,4.40
2022-12-26T21:09:18.594Z,3.70
2022-12-26T21:11:46.495Z,3.70
2022-12-26T21:14:20.642Z,3.73
2022-12-26T21:16:57.427Z,3.53
2022-12-26T21:19:29.715Z,3.03
2022-12-26T21:21:57.911Z,3.33
2022-12-26T21:24:33.044Z,3.30
2022-12-26T21:27:01.238Z,3.53
2022-12-26T21:29:34.436Z,3.10
2022-12-26T21:32:04.496Z,3.40
2022-12-26T21:34:34.866Z,3.20
2022-12-26T21:37:21.638Z,3.00
2022-12-26T21:39:50.741Z,3.10
2022-12-26T21:42:18.747Z,3.47
2022-12-26T21:44:46.359Z,3.87
2022-12-26T21:47:14.001Z,2.70
2022-12-26T21:49:41.549Z,3.47
2022-12-26T21:52:11.337Z,3.10
2022-12-26T21:54:57.838Z,3.10
2022-12-26T21:57:26.100Z,3.07
2022-12-26T21:59:56.370Z,2.87
2022-12-26T22:02:56.480Z,3.40
2022-12-26T22:05:29.764Z,3.27
2022-12-26T22:08:02.043Z,3.20
2022-12-26T22:10:52.030Z,3.07
2022-12-26T22:13:24.320Z,2.90
2022-12-26T22:16:07.842Z,3.07
2022-12-26T22:18:48.003Z,3.10
2022-12-26T22:21:22.848Z,3.53
2022-12-26T22:23:53.884Z,3.33
2022-12-26T22:26:24.280Z,2.90
2022-12-26T22:28:52.864Z,2.63
2022-12-26T22:31:32.346Z,3.20
2022-12-26T22:34:13.009Z,2.97
2022-12-26T22:36:42.116Z,2.70
2022-12-26T22:39:17.173Z,3.27
2022-12-26T22:41:46.450Z,2.73
2022-12-26T22:44:15.323Z,2.50
2022-12-26T22:46:43.365Z,2.33
2022-12-26T22:49:11.289Z,2.40
2022-12-26T22:51:39.478Z,2.70
2022-12-26T22:54:07.050Z,2.20
2022-12-26T22:56:34.842Z,3.00
2022-12-26T22:59:03.358Z,3.00
2022-12-26T23:01:31.946Z,2.40
2022-12-26T23:04:01.739Z,3.17
2022-12-26T23:06:38.091Z,3.20
2022-12-26T23:09:16.231Z,3.13
2022-12-26T23:12:04.741Z,2.50
2022-12-26T23:14:32.727Z,3.27
2022-12-26T23:17:33.100Z,3.00
2022-12-26T23:20:21.146Z,5.13
2022-12-26T23:22:49.342Z,2.73
2022-12-26T23:25:17.310Z,2.53
2022-12-26T23:28:03.651Z,3.17
2022-12-26T23:30:31.746Z,2.57
2022-12-26T23:33:00.529Z,2.40
2022-12-26T23:35:28.695Z,3.53
2022-12-26T23:37:56.278Z,3.07
2022-12-26T23:40:24.648Z,2.80
2022-12-26T23:42:52.237Z,3.10
2022-12-26T23:45:20.067Z,3.67
2022-12-26T23:47:47.640Z,3.40
2022-12-26T23:50:17.749Z,3.10
2022-12-26T23:52:45.962Z,2.73
2022-12-26T23:55:14.125Z,3.00
2022-12-26T23:57:41.785Z,2.90
